Time;durP1;ratioP1;P1;durP2;ratioP2;P2;SDS_P1;SDS_P2;PMS_P1;PMS_P2;Temp;Humidity;BMP_temperature;BMP_pressure;BME280_temperature;BME280_humidity;BME280_pressure;Samples;Min_cycle;Max_cycle;Signal;HPM_P1;HPM_P2
2023/07/27 00:02:52;;;;;;;2.30;1.53;;;;;;;17.68;56.70;96591.28;10536970;28;20417;-28
2023/07/27 00:07:53;;;;;;;1.83;1.20;;;;;;;17.61;56.65;96588.75;10526267;28;20031;-28
2023/07/27 00:12:54;;;;;;;1.45;1.27;;;;;;;17.70;56.43;96583.69;10525975;28;20071;-29
2023/07/27 00:17:54;;;;;;;3.35;1.67;;;;;;;17.68;56.51;96580.31;10534655;28;20032;-29
2023/07/27 00:22:55;;;;;;;3.40;1.92;;;;;;;17.72;56.84;96579.47;10536627;28;20101;-28
2023/07/27 00:27:55;;;;;;;2.27;1.30;;;;;;;17.61;56.34;96573.56;10534228;28;20024;-29
2023/07/27 00:32:55;;;;;;;3.47;1.17;;;;;;;17.63;56.33;96571.88;10518134;28;20837;-28
2023/07/27 00:37:57;;;;;;;2.65;1.45;;;;;;;17.55;56.82;96568.47;10507633;28;20444;-28
2023/07/27 00:42:57;;;;;;;4.70;1.40;;;;;;;17.54;57.06;96561.72;10514836;28;20039;-29
2023/07/27 00:47:58;;;;;;;2.93;1.53;;;;;;;17.49;57.01;96558.38;10527166;28;20032;-30
2023/07/27 00:52:58;;;;;;;2.30;1.20;;;;;;;17.44;57.44;96565.09;10513069;28;20040;-29
2023/07/27 00:57:59;;;;;;;2.30;1.43;;;;;;;17.42;57.57;96551.59;10516951;28;20294;-28
2023/07/27 01:03:02;;;;;;;3.38;1.70;;;;;;;17.41;57.30;96555.81;10515794;28;20048;-28
2023/07/27 01:08:03;;;;;;;1.88;1.20;;;;;;;17.47;57.15;96544.84;10533698;28;20051;-29
2023/07/27 01:13:27;;;;;;;1.52;1.35;;;;;;;17.44;57.32;96544.84;10526621;28;20154;-29
2023/07/27 01:18:50;;;;;;;2.40;1.48;;;;;;;17.42;57.55;96539.78;10492269;28;20039;-28
2023/07/27 01:24:23;;;;;;;8.45;1.58;;;;;;;17.36;57.60;96536.41;10506257;28;20314;-29
2023/07/27 01:29:44;;;;;;;2.83;1.50;;;;;;;17.35;57.61;96525.44;10520297;28;20047;-28
2023/07/27 01:34:48;;;;;;;4.90;1.38;;;;;;;17.38;57.74;96520.38;10517267;28;20024;-28
2023/07/27 01:39:51;;;;;;;3.95;1.60;;;;;;;17.39;57.55;96508.56;10519850;28;20103;-28
2023/07/27 01:44:53;;;;;;;2.70;1.40;;;;;;;17.36;57.46;96495.91;10515729;28;20093;-28
2023/07/27 01:49:55;;;;;;;2.03;1.40;;;;;;;17.35;57.43;96492.53;10532058;28;20052;-28
2023/07/27 01:54:56;;;;;;;6.75;1.60;;;;;;;17.32;57.73;96496.75;10514336;28;20032;-28
2023/07/27 01:59:58;;;;;;;4.30;1.52;;;;;;;17.26;57.87;96491.66;10532503;28;20032;-29
2023/07/27 02:04:58;;;;;;;3.88;1.52;;;;;;;17.22;57.83;96482.38;10533278;28;20063;-27
2023/07/27 02:09:59;;;;;;;3.33;1.85;;;;;;;17.24;58.08;96466.34;10507726;28;20127;-28
2023/07/27 02:15:07;;;;;;;4.40;1.60;;;;;;;17.27;57.99;96471.44;10515201;28;20039;-28
2023/07/27 02:20:11;;;;;;;2.80;1.83;;;;;;;17.32;57.56;96464.69;10522428;28;20036;-28
2023/07/27 02:25:12;;;;;;;1.98;1.58;;;;;;;17.31;57.55;96459.63;10509478;28;20460;-28
2023/07/27 02:30:13;;;;;;;1.20;1.02;;;;;;;17.39;57.09;96455.41;10530167;28;20048;-29
2023/07/27 02:35:14;;;;;;;3.55;1.98;;;;;;;17.28;58.23;96449.50;10503569;28;20035;-27
2023/07/27 02:40:19;;;;;;;3.90;1.52;;;;;;;17.29;57.64;96443.59;10530705;28;20078;-28
2023/07/27 02:45:20;;;;;;;3.90;1.70;;;;;;;17.25;58.32;96437.69;10507933;28;20071;-29
2023/07/27 02:50:21;;;;;;;4.55;1.55;;;;;;;17.32;58.06;96428.44;10532500;28;20036;-29
2023/07/27 02:55:34;;;;;;;2.17;1.25;;;;;;;17.30;57.72;96432.63;10512030;28;20080;-28
2023/07/27 03:00:36;;;;;;;1.65;1.33;;;;;;;17.14;58.41;96425.91;10509371;28;20028;-28
2023/07/27 03:05:38;;;;;;;3.80;1.42;;;;;;;17.31;57.75;96436.88;10517423;28;20036;-28
2023/07/27 03:10:39;;;;;;;3.45;1.58;;;;;;;17.28;57.69;96431.78;10519311;28;20115;-28
2023/07/27 03:15:40;;;;;;;2.17;1.73;;;;;;;17.30;57.74;96425.03;10525889;28;20498;-28
2023/07/27 03:20:42;;;;;;;3.30;1.60;;;;;;;17.27;58.03;96441.06;10534835;28;20471;-28
2023/07/27 03:25:43;;;;;;;2.45;1.60;;;;;;;17.35;57.61;96429.28;10518579;28;20071;-28
2023/07/27 03:30:43;;;;;;;2.70;1.50;;;;;;;17.32;57.47;96436.03;10513621;28;20039;-28
2023/07/27 03:35:44;;;;;;;2.50;1.60;;;;;;;17.41;57.19;96425.91;10537707;28;20089;-28
2023/07/27 03:40:46;;;;;;;3.58;1.60;;;;;;;17.43;56.88;96422.56;10526595;28;20103;-30
2023/07/27 03:45:51;;;;;;;1.30;1.20;;;;;;;17.22;57.76;96414.06;10535752;28;20031;-29
2023/07/27 03:50:53;;;;;;;2.55;1.30;;;;;;;17.15;57.96;96409.88;10511004;28;20047;-28
2023/07/27 03:55:54;;;;;;;3.15;1.60;;;;;;;17.00;58.47;96404.81;10513769;28;20031;-27
2023/07/27 04:00:54;;;;;;;2.22;1.63;;;;;;;16.89;59.18;96401.44;10523432;28;20406;-28
2023/07/27 04:05:55;;;;;;;2.80;1.40;;;;;;;16.96;58.72;96403.97;10518942;28;20409;-28
2023/07/27 04:10:55;;;;;;;2.00;1.73;;;;;;;16.83;59.20;96393.84;10527816;28;20036;-28
2023/07/27 04:15:55;;;;;;;3.17;1.50;;;;;;;16.87;59.50;96414.06;10534423;28;20024;-28
2023/07/27 04:20:56;;;;;;;1.80;1.43;;;;;;;17.03;58.58;96419.97;10534585;28;20024;-29
2023/07/27 04:25:56;;;;;;;2.88;1.65;;;;;;;17.21;58.91;96414.91;10530204;28;20028;-29
2023/07/27 04:30:57;;;;;;;3.50;1.57;;;;;;;17.29;58.87;96408.16;10531285;28;20120;-28
2023/07/27 04:35:59;;;;;;;4.63;1.70;;;;;;;17.29;58.69;96409.03;10526360;28;20282;-28
2023/07/27 04:41:00;;;;;;;2.85;2.22;;;;;;;17.25;58.54;96407.31;10511493;28;20335;-29
2023/07/27 04:46:00;;;;;;;2.73;1.47;;;;;;;17.27;58.69;96414.91;10534749;28;20106;-28
2023/07/27 04:51:01;;;;;;;1.50;1.30;;;;;;;17.26;58.83;96408.19;10530561;28;20023;-29
2023/07/27 04:56:01;;;;;;;10.53;7.53;;;;;;;17.08;59.79;96398.06;10531821;28;20379;-29
2023/07/27 05:01:01;;;;;;;7.50;4.33;;;;;;;17.57;58.02;96409.88;10505456;28;20024;-28
2023/07/27 05:06:02;;;;;;;5.40;3.20;;;;;;;18.01;57.08;96403.00;10526048;28;20357;-29
2023/07/27 05:11:03;;;;;;;6.90;2.70;;;;;;;18.19;56.72;96387.75;10534268;28;20414;-28
2023/07/27 05:16:04;;;;;;;6.93;3.15;;;;;;;18.36;56.56;96388.53;10525124;28;20037;-31
2023/07/27 05:21:04;;;;;;;6.32;2.83;;;;;;;18.54;56.48;96378.31;10536798;28;20024;-29
2023/07/27 05:26:05;;;;;;;6.63;2.60;;;;;;;18.61;56.29;96382.50;10527848;28;20043;-29
2023/07/27 05:31:07;;;;;;;10.52;4.10;;;;;;;18.60;56.44;96385.88;10533338;28;20312;-29
2023/07/27 05:36:07;;;;;;;5.55;3.03;;;;;;;18.59;56.02;96384.19;10532788;28;20060;-28
2023/07/27 05:41:07;;;;;;;8.67;2.53;;;;;;;18.58;56.71;96382.53;10532768;28;20466;-27
2023/07/27 05:46:08;;;;;;;4.00;2.70;;;;;;;18.59;56.52;96376.59;10531266;28;20036;-28
2023/07/27 05:51:09;;;;;;;4.00;2.70;;;;;;;18.63;56.10;96375.72;10526745;28;20033;-29
2023/07/27 05:56:09;;;;;;;4.65;2.88;;;;;;;18.59;56.48;96362.22;10532640;28;20046;-29
2023/07/27 06:01:10;;;;;;;4.77;2.63;;;;;;;18.67;56.05;96378.22;10537288;28;20028;-28
2023/07/27 06:06:13;;;;;;;4.80;2.73;;;;;;;18.68;56.14;96374.00;10523458;28;20634;-28
2023/07/27 06:11:13;;;;;;;4.80;2.95;;;;;;;18.69;56.03;96373.16;10541464;28;20775;-28
2023/07/27 06:16:15;;;;;;;3.90;2.00;;;;;;;18.74;56.41;96379.03;10518326;28;20089;-28
2023/07/27 06:21:15;;;;;;;4.82;1.85;;;;;;;18.88;56.42;96375.56;10533492;28;20511;-28
2023/07/27 06:26:15;;;;;;;2.33;1.80;;;;;;;18.92;56.13;96367.06;10544212;28;20114;-28
2023/07/27 06:31:16;;;;;;;5.20;2.30;;;;;;;18.87;56.18;96371.34;10549167;28;20031;-28
2023/07/27 06:36:17;;;;;;;5.13;2.40;;;;;;;18.82;56.07;96379.84;10533571;28;20400;-28
2023/07/27 06:41:20;;;;;;;3.42;2.55;;;;;;;18.82;56.15;96382.38;10542631;28;20153;-28
2023/07/27 06:46:20;;;;;;;6.55;2.00;;;;;;;18.83;56.24;96376.44;10545347;28;20039;-29
2023/07/27 06:51:24;;;;;;;2.97;2.17;;;;;;;18.79;56.29;96372.22;10545810;28;20024;-28
2023/07/27 06:56:24;;;;;;;2.83;2.28;;;;;;;18.84;56.19;96367.97;10541028;28;20119;-29
2023/07/27 07:01:24;;;;;;;2.13;1.60;;;;;;;18.83;56.29;96371.38;10545335;28;20076;-29
2023/07/27 07:06:25;;;;;;;4.03;2.00;;;;;;;18.86;56.23;96376.41;10545078;28;20032;-28
2023/07/27 07:11:25;;;;;;;5.10;2.07;;;;;;;18.84;56.35;96365.44;10541953;28;20494;-28
2023/07/27 07:16:26;;;;;;;4.03;2.23;;;;;;;18.89;57.61;96362.00;10543161;28;20088;-29
2023/07/27 07:21:26;;;;;;;2.50;1.70;;;;;;;19.02;57.24;96355.97;10542627;28;20036;-29
2023/07/27 07:26:27;;;;;;;2.42;1.77;;;;;;;19.05;56.91;96358.50;10557974;28;20062;-29
2023/07/27 07:31:27;;;;;;;4.03;2.15;;;;;;;19.00;57.07;96357.69;10545242;28;20438;-28
2023/07/27 07:36:27;;;;;;;3.30;2.00;;;;;;;18.96;56.57;96355.19;10545312;28;20039;-29
2023/07/27 07:41:28;;;;;;;3.47;1.90;;;;;;;18.93;56.53;96345.09;10538586;28;20547;-28
2023/07/27 07:46:29;;;;;;;2.38;1.65;;;;;;;18.93;56.56;96342.53;10536984;28;20044;-28
2023/07/27 07:51:29;;;;;;;2.53;1.63;;;;;;;18.93;56.73;96345.09;10537779;28;20028;-28
2023/07/27 07:56:29;;;;;;;2.70;2.07;;;;;;;18.94;56.51;96346.75;10537284;28;20647;-29
2023/07/27 08:01:30;;;;;;;2.00;1.67;;;;;;;18.93;56.48;96350.97;10536573;28;20294;-29
2023/07/27 08:06:30;;;;;;;1.90;1.63;;;;;;;18.94;56.57;96341.69;10537126;28;20038;-29
2023/07/27 08:11:30;;;;;;;3.05;1.58;;;;;;;18.94;56.57;96331.53;10536417;28;20081;-28
2023/07/27 08:16:31;;;;;;;5.57;1.87;;;;;;;19.01;57.51;96321.31;10528836;28;20032;-29
2023/07/27 08:21:31;;;;;;;3.50;1.80;;;;;;;19.14;56.87;96329.66;10536303;28;20294;-28
2023/07/27 08:26:32;;;;;;;4.43;1.90;;;;;;;19.09;56.72;96311.94;10535535;28;20450;-28
2023/07/27 08:31:32;;;;;;;3.10;1.40;;;;;;;19.10;56.77;96322.94;10532139;28;20751;-29
2023/07/27 08:36:32;;;;;;;2.57;1.60;;;;;;;19.06;56.67;96311.13;10526358;28;20294;-28
2023/07/27 08:41:34;;;;;;;2.57;1.70;;;;;;;19.02;56.51;96310.31;10535651;28;20076;-28
2023/07/27 08:46:35;;;;;;;1.92;1.20;;;;;;;19.02;56.65;96319.63;10534767;28;20255;-28
2023/07/27 08:51:37;;;;;;;2.08;1.63;;;;;;;19.00;56.55;96301.06;10535354;28;20032;-28
2023/07/27 08:56:37;;;;;;;1.40;1.30;;;;;;;19.01;56.53;96300.19;10534908;28;20028;-29
2023/07/27 09:01:38;;;;;;;4.10;2.47;;;;;;;19.01;56.58;96297.66;10520397;28;20043;-29
2023/07/27 09:06:39;;;;;;;1.83;1.33;;;;;;;19.01;56.59;96295.13;10534936;28;20162;-28
2023/07/27 09:11:42;;;;;;;2.50;1.42;;;;;;;19.01;56.64;96295.13;10529859;28;20519;-28
2023/07/27 09:16:43;;;;;;;2.78;1.60;;;;;;;19.13;56.84;96297.53;10533687;28;20059;-29
2023/07/27 09:21:45;;;;;;;1.50;1.40;;;;;;;19.22;56.44;96303.41;10524169;28;20032;-29
2023/07/27 09:26:51;;;;;;;2.78;1.55;;;;;;;19.21;56.39;96300.88;10531578;28;20409;-28
2023/07/27 09:31:54;;;;;;;1.90;1.33;;;;;;;19.14;56.56;96289.91;10530064;28;20119;-28
2023/07/27 09:37:02;;;;;;;2.38;1.73;;;;;;;19.06;56.55;96283.22;10526333;28;20063;-28
2023/07/27 09:42:06;;;;;;;2.28;1.40;;;;;;;19.06;56.48;96290.84;10526986;28;20097;-29
2023/07/27 09:47:17;;;;;;;2.00;1.60;;;;;;;19.05;56.78;96289.16;10520180;28;20028;-28
2023/07/27 09:52:19;;;;;;;1.65;1.42;;;;;;;19.05;56.76;96290.00;10531035;28;20036;-29
2023/07/27 09:57:20;;;;;;;1.45;1.20;;;;;;;19.05;56.74;96294.22;10531695;28;20147;-29
2023/07/27 10:02:22;;;;;;;2.00;1.52;;;;;;;19.05;56.81;96306.91;10532747;28;20109;-29
2023/07/27 10:07:25;;;;;;;1.80;1.50;;;;;;;19.04;56.74;96303.56;10531763;28;20085;-28
2023/07/27 10:12:27;;;;;;;1.70;1.55;;;;;;;19.11;57.31;96314.47;10529489;28;20123;-29
2023/07/27 10:17:44;;;;;;;1.77;1.10;;;;;;;19.25;56.72;96305.09;10527407;28;20028;-29
2023/07/27 10:22:50;;;;;;;1.80;1.25;;;;;;;19.28;56.76;96305.03;10526492;28;20036;-29
2023/07/27 10:27:55;;;;;;;1.40;1.20;;;;;;;19.22;56.63;96298.34;10531908;28;20093;-29
2023/07/27 10:33:08;;;;;;;1.93;1.40;;;;;;;19.17;56.65;96294.13;10524564;28;20040;-28
2023/07/27 10:38:13;;;;;;;1.15;1.02;;;;;;;19.10;56.70;96298.41;10529833;28;20110;-29
2023/07/27 10:43:14;;;;;;;1.57;1.40;;;;;;;19.11;56.96;96304.34;10518345;28;20044;-29
2023/07/27 10:48:17;;;;;;;1.63;1.40;;;;;;;19.10;56.68;96292.50;10528083;28;20393;-29
2023/07/27 10:53:18;;;;;;;1.73;1.40;;;;;;;19.08;56.87;96284.06;10528763;28;20763;-29
2023/07/27 10:58:19;;;;;;;1.97;1.40;;;;;;;19.09;56.83;96283.22;10525617;28;20028;-29
2023/07/27 11:03:20;;;;;;;3.78;1.38;;;;;;;19.10;57.04;96280.63;10531023;28;20285;-28
2023/07/27 11:08:20;;;;;;;2.67;1.20;;;;;;;19.10;56.92;96277.28;10524576;28;20036;-30
2023/07/27 11:13:24;;;;;;;2.00;1.52;;;;;;;19.22;57.84;96275.50;10535186;28;20028;-29
2023/07/27 11:18:28;;;;;;;3.45;1.48;;;;;;;19.33;57.17;96277.94;10538572;28;20486;-28
2023/07/27 11:23:30;;;;;;;1.92;1.48;;;;;;;19.32;57.15;96268.59;10531061;28;20050;-29
2023/07/27 11:28:32;;;;;;;3.15;1.20;;;;;;;19.25;57.08;96267.03;10534835;28;20039;-29
2023/07/27 11:33:34;;;;;;;1.38;1.27;;;;;;;19.16;56.89;96264.53;10533670;28;20459;-29
2023/07/27 11:38:35;;;;;;;1.55;1.20;;;;;;;19.18;57.10;96280.59;10534380;28;20231;-28
2023/07/27 11:43:37;;;;;;;2.28;1.30;;;;;;;19.16;57.20;96256.94;10529536;28;20036;-29
2023/07/27 11:48:37;;;;;;;1.75;1.20;;;;;;;19.15;57.09;96252.69;10530913;28;20040;-29
2023/07/27 11:53:37;;;;;;;3.43;1.40;;;;;;;19.15;57.09;96240.84;10533692;28;20040;-28
2023/07/27 11:58:38;;;;;;;1.63;1.03;;;;;;;19.15;57.17;96229.84;10527720;28;20787;-29
2023/07/27 12:03:41;;;;;;;2.58;1.45;;;;;;;19.16;57.15;96241.69;10527518;28;20406;-28
2023/07/27 12:08:42;;;;;;;1.92;1.40;;;;;;;19.16;57.25;96223.94;10528380;28;20024;-28
2023/07/27 12:13:43;;;;;;;6.10;1.60;;;;;;;19.34;58.00;96226.31;10535722;28;20032;-28
2023/07/27 12:18:47;;;;;;;3.45;1.77;;;;;;;19.41;57.86;96210.97;10525200;28;20131;-28
2023/07/27 12:23:47;;;;;;;1.88;1.50;;;;;;;19.37;57.64;96203.41;10528893;28;20047;-28
2023/07/27 12:28:48;;;;;;;2.77;1.80;;;;;;;19.31;57.37;96196.72;10522601;28;20405;-29
2023/07/27 12:33:48;;;;;;;3.80;1.50;;;;;;;19.25;57.23;96195.97;10536494;28;20036;-29
2023/07/27 12:38:48;;;;;;;2.77;1.20;;;;;;;19.24;57.21;96194.28;10536061;28;20404;-28
2023/07/27 12:43:49;;;;;;;1.60;1.37;;;;;;;19.22;57.21;96185.81;10526686;28;20477;-28
2023/07/27 12:48:50;;;;;;;2.90;1.17;;;;;;;19.21;57.21;96179.91;10542814;28;20497;-28
2023/07/27 12:53:50;;;;;;;2.42;1.52;;;;;;;19.20;57.59;96190.06;10536750;28;20306;-29
2023/07/27 12:58:50;;;;;;;2.20;1.97;;;;;;;19.22;57.30;96188.34;10535065;28;20035;-28
2023/07/27 13:03:51;;;;;;;3.93;1.30;;;;;;;19.20;57.35;96188.41;10525116;28;20036;-29
2023/07/27 13:08:51;;;;;;;1.60;1.33;;;;;;;19.29;58.82;96184.91;10532801;28;20039;-30
2023/07/27 13:13:51;;;;;;;2.07;1.50;;;;;;;19.42;58.10;96176.28;10527230;28;20301;-29
2023/07/27 13:18:52;;;;;;;5.33;2.00;;;;;;;19.43;58.07;96168.63;10530790;28;20417;-29
2023/07/27 13:23:52;;;;;;;1.87;1.20;;;;;;;19.40;57.59;96165.28;10535918;28;20486;-29
2023/07/27 13:28:52;;;;;;;1.70;1.10;;;;;;;19.34;57.61;96162.84;10533817;28;20024;-28
2023/07/27 13:33:53;;;;;;;1.70;1.10;;;;;;;19.30;57.50;96166.28;10548186;28;20363;-29
2023/07/27 13:38:53;;;;;;;1.67;1.00;;;;;;;19.28;57.33;96170.53;10528359;28;20035;-29
2023/07/27 13:43:54;;;;;;;3.63;1.57;;;;;;;19.25;57.48;96179.00;10527834;28;20452;-28
2023/07/27 13:48:54;;;;;;;1.55;1.15;;;;;;;19.24;57.48;96164.66;10531239;28;20595;-28
2023/07/27 13:53:55;;;;;;;1.90;1.60;;;;;;;19.25;57.53;96162.97;10533327;28;20036;-28
2023/07/27 13:58:55;;;;;;;1.42;1.30;;;;;;;19.24;57.56;96171.44;10532787;28;20034;-28
2023/07/27 14:03:55;;;;;;;2.53;1.30;;;;;;;19.22;57.53;96153.69;10534281;28;20032;-29
2023/07/27 14:08:58;;;;;;;3.77;1.60;;;;;;;19.39;58.66;96148.38;10533530;28;20047;-29
2023/07/27 14:13:58;;;;;;;3.42;1.30;;;;;;;19.49;58.40;96162.66;10526150;28;20036;-28
2023/07/27 14:18:59;;;;;;;1.67;1.17;;;;;;;19.49;58.03;96144.91;10532034;28;20036;-29
2023/07/27 14:24:01;;;;;;;1.47;1.10;;;;;;;19.41;57.81;96137.34;10532786;28;20044;-29
2023/07/27 14:29:03;;;;;;;2.00;0.90;;;;;;;19.36;57.21;96149.28;10532638;28;20138;-29
2023/07/27 14:34:03;;;;;;;3.30;1.55;;;;;;;19.32;57.68;96155.25;10532117;28;20024;-29
2023/07/27 14:39:04;;;;;;;1.43;1.10;;;;;;;19.31;57.60;96150.19;10531419;28;20036;-28
2023/07/27 14:44:04;;;;;;;1.20;1.00;;;;;;;19.29;57.68;96156.97;10535980;28;20281;-28
2023/07/27 14:49:05;;;;;;;1.00;0.90;;;;;;;19.27;57.68;96158.69;10535180;28;20296;-29
2023/07/27 14:54:05;;;;;;;2.97;1.10;;;;;;;19.26;57.83;96157.84;10536906;28;20481;-29
2023/07/27 14:59:05;;;;;;;1.43;1.10;;;;;;;19.20;57.67;96146.94;10537783;28;20509;-29
2023/07/27 15:04:06;;;;;;;2.03;1.40;;;;;;;19.27;57.86;96156.16;10533280;28;20403;-28
2023/07/27 15:09:06;;;;;;;2.60;1.57;;;;;;;19.46;58.85;96155.91;10541384;28;20085;-28
2023/07/27 15:14:06;;;;;;;1.70;1.00;;;;;;;19.52;58.64;96150.75;10538879;28;20040;-29
2023/07/27 15:19:07;;;;;;;2.10;1.30;;;;;;;19.49;58.08;96155.06;10538857;28;20036;-29
2023/07/27 15:24:10;;;;;;;3.17;1.10;;;;;;;19.42;57.87;96153.44;10538720;28;20047;-29
2023/07/27 15:29:12;;;;;;;1.27;1.17;;;;;;;19.36;57.65;96149.28;10538625;28;20278;-29
2023/07/27 15:34:12;;;;;;;1.80;1.15;;;;;;;19.33;57.70;96143.41;10532337;28;20088;-29
2023/07/27 15:39:13;;;;;;;1.05;0.85;;;;;;;19.32;57.82;96121.41;10528532;28;20092;-28
2023/07/27 15:44:13;;;;;;;1.38;1.13;;;;;;;19.26;57.81;96126.56;10537889;28;20169;-28
2023/07/27 15:49:14;;;;;;;1.37;1.00;;;;;;;19.30;57.76;96113.81;10530825;28;20410;-29
2023/07/27 15:54:14;;;;;;;2.25;1.23;;;;;;;19.29;57.83;96121.44;10533812;28;20032;-28
2023/07/27 15:59:15;;;;;;;2.67;1.10;;;;;;;19.29;57.96;96112.16;10536097;28;20036;-28
2023/07/27 16:04:15;;;;;;;2.43;1.10;;;;;;;19.42;59.69;96117.91;10535016;28;20044;-27
2023/07/27 16:09:18;;;;;;;3.47;1.00;;;;;;;19.55;58.97;96109.25;10536526;28;20028;-30
2023/07/27 16:14:19;;;;;;;1.60;1.20;;;;;;;19.58;58.58;96115.13;10529760;28;20068;-29
2023/07/27 16:19:19;;;;;;;1.97;1.00;;;;;;;19.50;58.16;96113.56;10534920;28;20071;-29
2023/07/27 16:24:20;;;;;;;4.93;0.90;;;;;;;19.34;58.31;96115.44;10530413;28;20031;-29
2023/07/27 16:29:20;;;;;;;5.00;1.33;;;;;;;19.37;58.64;96106.97;10521654;28;20089;-27
2023/07/27 16:34:20;;;;;;;2.23;1.17;;;;;;;19.37;58.08;96102.72;10544374;28;20085;-28
2023/07/27 16:39:21;;;;;;;3.83;1.10;;;;;;;19.37;58.36;96094.28;10535081;28;20035;-28
2023/07/27 16:44:21;;;;;;;4.67;1.40;;;;;;;19.41;58.05;96094.19;10526100;28;20032;-28
2023/07/27 16:49:21;;;;;;;1.08;0.98;;;;;;;19.43;57.91;96092.47;10522909;28;20052;-29
2023/07/27 16:54:22;;;;;;;4.33;1.27;;;;;;;19.47;58.09;96090.75;10530159;28;20071;-29
2023/07/27 16:59:25;;;;;;;3.10;1.30;;;;;;;19.49;57.90;96099.19;10527068;28;20094;-28
2023/07/27 17:04:25;;;;;;;4.07;1.33;;;;;;;19.60;59.50;96094.78;10530266;28;20297;-28
2023/07/27 17:09:26;;;;;;;6.27;1.37;;;;;;;19.66;59.70;96093.00;10530008;28;20040;-28
2023/07/27 17:14:28;;;;;;;4.50;1.35;;;;;;;19.57;58.62;96094.81;10523012;28;20286;-28
2023/07/27 17:19:28;;;;;;;6.45;1.45;;;;;;;19.56;57.95;96085.53;10536617;28;20100;-28
2023/07/27 17:24:29;;;;;;;2.00;1.35;;;;;;;19.55;58.32;96091.47;10511203;28;20169;-29
2023/07/27 17:29:29;;;;;;;2.58;1.20;;;;;;;19.56;58.42;96095.69;10535378;28;20038;-29
2023/07/27 17:34:29;;;;;;;6.07;1.00;;;;;;;19.46;58.31;96068.75;10524524;28;20020;-29
2023/07/27 17:39:30;;;;;;;2.00;1.07;;;;;;;19.58;58.16;96092.28;10504867;28;20786;-28
2023/07/27 17:44:31;;;;;;;1.80;0.98;;;;;;;19.60;58.30;96087.19;10517994;28;20269;-29
2023/07/27 17:49:33;;;;;;;1.67;1.07;;;;;;;19.59;58.30;96090.59;10517713;28;20506;-30
2023/07/27 17:54:33;;;;;;;3.08;1.05;;;;;;;19.59;58.10;96088.03;10532178;28;20324;-30
2023/07/27 17:59:34;;;;;;;5.20;1.30;;;;;;;19.67;60.60;96083.69;10527454;28;20036;-29
2023/07/27 18:04:34;;;;;;;4.00;1.60;;;;;;;19.74;61.77;96083.56;10507627;28;20296;-29
2023/07/27 18:09:36;;;;;;;2.22;1.20;;;;;;;19.69;59.19;96075.16;10527300;28;20273;-29
2023/07/27 18:14:36;;;;;;;6.15;1.38;;;;;;;19.66;58.67;96075.22;10520680;28;20039;-28
2023/07/27 18:19:37;;;;;;;2.83;1.10;;;;;;;19.58;58.52;96071.13;10521489;28;20081;-29
2023/07/27 18:24:39;;;;;;;3.78;1.10;;;;;;;19.60;58.50;96082.09;10532404;28;20482;-29
2023/07/27 18:29:40;;;;;;;7.63;1.17;;;;;;;19.62;58.43;96081.22;10531134;28;20040;-28
2023/07/27 18:34:40;;;;;;;1.23;1.00;;;;;;;19.63;58.56;96076.97;10527570;28;20123;-29
2023/07/27 18:39:41;;;;;;;2.30;1.20;;;;;;;19.57;59.20;96075.34;10514577;28;20469;-29
2023/07/27 18:44:41;;;;;;;3.07;1.10;;;;;;;19.60;58.74;96066.88;10505804;28;20028;-29
2023/07/27 18:49:42;;;;;;;3.43;1.33;;;;;;;19.60;58.89;96069.41;10527197;28;20923;-28
2023/07/27 18:54:42;;;;;;;4.50;2.13;;;;;;;19.59;60.28;96065.19;10527106;28;20074;-29
2023/07/27 18:59:43;;;;;;;4.72;1.88;;;;;;;19.76;61.39;96069.13;10526470;28;20799;-28
2023/07/27 19:04:43;;;;;;;2.08;1.60;;;;;;;19.78;60.79;96071.66;10528048;28;20051;-29
2023/07/27 19:09:43;;;;;;;4.20;0.90;;;;;;;19.67;58.98;96069.28;10520049;28;20038;-28
2023/07/27 19:14:44;;;;;;;1.63;1.00;;;;;;;19.64;59.07;96082.03;10533768;28;20748;-30
2023/07/27 19:19:44;;;;;;;2.13;0.90;;;;;;;19.63;58.81;96087.97;10510294;28;20032;-29
2023/07/27 19:24:45;;;;;;;3.97;1.10;;;;;;;19.61;58.79;96096.47;10526871;28;20286;-28
2023/07/27 19:29:45;;;;;;;1.87;1.03;;;;;;;19.59;58.96;96096.47;10529345;28;20032;-29
2023/07/27 19:34:45;;;;;;;1.17;0.80;;;;;;;19.60;58.94;96112.56;10534544;28;20286;-28
2023/07/27 19:39:46;;;;;;;1.37;0.87;;;;;;;19.58;58.86;96119.38;10514225;28;20036;-29
2023/07/27 19:44:46;;;;;;;1.57;0.90;;;;;;;19.51;58.87;96112.69;10534730;28;20346;-28
2023/07/27 19:49:47;;;;;;;0.70;0.70;;;;;;;19.57;58.58;96131.22;10533451;28;20286;-28
2023/07/27 19:54:50;;;;;;;3.17;1.17;;;;;;;19.72;61.48;96125.09;10513983;28;20795;-28
2023/07/27 19:59:57;;;;;;;2.20;1.42;;;;;;;19.79;61.63;96130.06;10535401;28;20316;-29
2023/07/27 20:04:58;;;;;;;4.72;1.20;;;;;;;19.69;59.11;96122.59;10538114;28;20111;-28
2023/07/27 20:09:59;;;;;;;1.40;0.95;;;;;;;19.65;59.16;96128.56;10511759;28;20114;-29
2023/07/27 20:15:00;;;;;;;1.83;1.00;;;;;;;19.62;58.70;96131.16;10527283;28;20063;-28
2023/07/27 20:20:00;;;;;;;2.93;0.90;;;;;;;19.60;58.96;96122.72;10535435;28;20116;-29
2023/07/27 20:25:01;;;;;;;1.02;0.82;;;;;;;19.59;58.96;96126.94;10527394;28;20764;-29
2023/07/27 20:30:01;;;;;;;3.23;1.10;;;;;;;19.58;59.02;96124.47;10507921;28;20028;-29
2023/07/27 20:35:01;;;;;;;3.30;1.20;;;;;;;19.59;59.06;96121.06;10534523;28;20046;-29
2023/07/27 20:40:02;;;;;;;2.40;0.90;;;;;;;19.58;58.66;96125.28;10510376;28;20301;-29
2023/07/27 20:45:05;;;;;;;2.05;1.00;;;;;;;19.57;58.76;96130.38;10517093;28;20020;-28
2023/07/27 20:50:09;;;;;;;5.10;1.80;;;;;;;19.73;62.86;96120.00;10535116;28;20521;-28
2023/07/27 20:55:09;;;;;;;3.88;1.75;;;;;;;19.81;63.00;96130.03;10535226;28;20032;-28
2023/07/27 21:00:11;;;;;;;1.45;1.20;;;;;;;19.72;60.08;96118.31;10534987;28;20038;-28
2023/07/27 21:05:11;;;;;;;1.95;0.90;;;;;;;19.65;59.29;96116.72;10533054;28;20409;-29
2023/07/27 21:10:12;;;;;;;1.50;0.93;;;;;;;19.62;59.00;96110.84;10533972;28;20114;-29
2023/07/27 21:15:12;;;;;;;1.08;0.80;;;;;;;19.61;59.08;96101.56;10534706;28;20286;-28
2023/07/27 21:20:13;;;;;;;1.35;1.05;;;;;;;19.57;59.12;96099.91;10541375;28;20431;-28
2023/07/27 21:25:13;;;;;;;1.10;1.00;;;;;;;19.58;58.94;96093.97;10522645;28;20402;-28
2023/07/27 21:30:14;;;;;;;1.15;1.00;;;;;;;19.59;59.06;96095.66;10500014;28;20028;-28
2023/07/27 21:35:14;;;;;;;1.13;1.00;;;;;;;19.58;59.03;96088.91;10528134;28;20044;-28
2023/07/27 21:40:15;;;;;;;1.90;1.02;;;;;;;19.55;59.12;96082.16;10532715;28;20040;-29
2023/07/27 21:45:15;;;;;;;1.50;1.40;;;;;;;19.74;62.75;96090.34;10514888;28;20050;-29
2023/07/27 21:50:16;;;;;;;3.60;1.70;;;;;;;19.81;63.55;96087.69;10533160;28;20032;-28
2023/07/27 21:55:16;;;;;;;2.55;1.13;;;;;;;19.78;61.36;96086.91;10513961;28;20036;-28
2023/07/27 22:00:17;;;;;;;1.40;1.17;;;;;;;19.69;58.89;96087.03;10521777;28;20520;-29
2023/07/27 22:05:18;;;;;;;1.58;1.08;;;;;;;19.62;59.38;96080.38;10528024;28;20853;-28
2023/07/27 22:10:18;;;;;;;1.67;1.10;;;;;;;19.60;59.16;96071.94;10532078;28;20028;-30
2023/07/27 22:15:19;;;;;;;0.98;0.80;;;;;;;19.59;59.06;96071.09;10532672;28;20776;-28
2023/07/27 22:20:19;;;;;;;2.33;1.15;;;;;;;19.57;59.33;96071.97;10531464;28;20043;-29
2023/07/27 22:25:20;;;;;;;0.87;0.70;;;;;;;19.52;59.05;96058.53;10514795;28;20032;-28
2023/07/27 22:30:20;;;;;;;1.23;1.13;;;;;;;19.57;58.90;96066.88;10531749;28;20290;-28
2023/07/27 22:35:21;;;;;;;1.90;1.00;;;;;;;19.55;58.89;96069.47;10537028;28;20286;-28
2023/07/27 22:40:21;;;;;;;2.13;1.30;;;;;;;19.69;63.31;96059.09;10527328;28;20795;-28
2023/07/27 22:45:22;;;;;;;1.50;1.10;;;;;;;19.80;63.54;96063.16;10511765;28;20102;-29
2023/07/27 22:50:22;;;;;;;1.33;1.23;;;;;;;19.80;62.41;96059.78;10533744;28;20027;-29
2023/07/27 22:55:22;;;;;;;4.20;1.13;;;;;;;19.71;60.38;96065.84;10520104;28;20040;-29
2023/07/27 23:00:24;;;;;;;1.15;1.05;;;;;;;19.64;59.15;96068.47;10531149;28;20290;-29
2023/07/27 23:05:24;;;;;;;1.80;0.90;;;;;;;19.62;59.45;96063.44;10535526;28;20114;-29
2023/07/27 23:10:25;;;;;;;2.60;1.30;;;;;;;19.59;59.62;96060.13;10537017;28;20040;-29
2023/07/27 23:15:25;;;;;;;1.73;1.02;;;;;;;19.59;59.28;96067.72;10538280;28;20043;-29
2023/07/27 23:20:26;;;;;;;2.60;1.17;;;;;;;19.58;59.44;96071.97;10534212;28;20032;-29